createdAt,value
2019-05-11T00:00:08.993Z,9.20
2019-05-11T00:02:38.497Z,9.20
2019-05-11T00:05:08.311Z,9.10
2019-05-11T00:07:37.896Z,9.10
2019-05-11T00:10:07.786Z,9.10
2019-05-11T00:12:37.340Z,9.20
2019-05-11T00:15:07.611Z,9.20
2019-05-11T00:17:37.153Z,9.30
2019-05-11T00:20:07.964Z,9.30
2019-05-11T00:22:37.621Z,9.30
2019-05-11T00:25:08.631Z,9.20
2019-05-11T00:27:38.127Z,9.30
2019-05-11T00:30:08.002Z,9.30
2019-05-11T00:32:37.615Z,9.40
2019-05-11T00:35:08.122Z,9.40
2019-05-11T00:37:37.688Z,9.40
2019-05-11T00:40:14.251Z,9.40
2019-05-11T00:42:38.602Z,9.30
2019-05-11T00:45:08.332Z,9.30
2019-05-11T00:47:37.905Z,9.30
2019-05-11T00:50:08.352Z,9.20
2019-05-11T00:52:37.953Z,9.20
2019-05-11T00:55:08.067Z,9.30
2019-05-11T00:57:37.646Z,9.30
2019-05-11T01:00:08.951Z,9.30
2019-05-11T01:02:38.523Z,9.30
2019-05-11T01:05:08.383Z,9.30
2019-05-11T01:07:38.925Z,9.30
2019-05-11T01:10:22.968Z,9.30
2019-05-11T01:12:39.973Z,9.30
2019-05-11T01:15:10.132Z,9.40
2019-05-11T01:17:39.631Z,9.40
2019-05-11T01:20:09.497Z,9.40
2019-05-11T01:22:39.046Z,9.40
2019-05-11T01:25:08.697Z,9.40
2019-05-11T01:27:38.401Z,9.30
2019-05-11T01:30:09.059Z,9.30
2019-05-11T01:32:38.699Z,9.30
2019-05-11T01:35:08.385Z,9.40
2019-05-11T01:37:37.987Z,9.30
2019-05-11T01:40:07.864Z,9.30
2019-05-11T01:42:37.407Z,9.30
2019-05-11T01:45:07.564Z,9.30
2019-05-11T01:47:37.137Z,9.30
2019-05-11T01:50:06.947Z,9.30
2019-05-11T01:52:36.511Z,9.30
2019-05-11T01:55:06.443Z,9.30
2019-05-11T01:57:35.987Z,9.40
2019-05-11T02:00:07.733Z,9.40
2019-05-11T02:02:37.309Z,9.40
2019-05-11T02:05:25.214Z,9.30
2019-05-11T02:07:54.856Z,9.30
2019-05-11T02:10:24.753Z,9.20
2019-05-11T02:12:54.320Z,9.20
2019-05-11T02:15:23.853Z,9.20
2019-05-11T02:17:53.374Z,9.20
2019-05-11T02:20:22.887Z,9.20
2019-05-11T02:22:52.923Z,9.10
2019-05-11T02:25:22.433Z,9.20
2019-05-11T02:27:51.991Z,9.20
2019-05-11T02:30:22.111Z,9.10
2019-05-11T02:32:51.616Z,9.10
2019-05-11T02:35:21.115Z,9.00
2019-05-11T02:37:50.655Z,9.10
2019-05-11T02:40:21.619Z,9.10
2019-05-11T02:42:51.192Z,9.10
2019-05-11T02:45:41.972Z,9.10
2019-05-11T02:48:11.693Z,9.10
2019-05-11T02:50:41.247Z,9.10
2019-05-11T02:53:11.006Z,9.00
2019-05-11T02:55:41.961Z,9.00
2019-05-11T02:58:11.446Z,9.00
2019-05-11T03:00:45.916Z,9.00
2019-05-11T03:03:15.524Z,9.00
2019-05-11T03:05:45.109Z,9.00
2019-05-11T03:08:14.688Z,9.00
2019-05-11T03:10:44.231Z,9.00
2019-05-11T03:13:13.729Z,9.00
2019-05-11T03:15:43.326Z,9.10
2019-05-11T03:18:13.025Z,9.10
2019-05-11T03:20:42.522Z,9.10
2019-05-11T03:23:12.287Z,9.10
2019-05-11T03:25:41.919Z,9.00
2019-05-11T03:28:11.481Z,9.00
2019-05-11T03:30:41.102Z,9.00
2019-05-11T03:33:10.762Z,9.00
2019-05-11T03:35:40.340Z,9.00
2019-05-11T03:38:09.912Z,8.90
2019-05-11T03:40:39.553Z,8.90
2019-05-11T03:43:09.163Z,9.00
2019-05-11T03:45:38.746Z,8.90
2019-05-11T03:48:08.758Z,8.90
2019-05-11T03:50:38.459Z,8.90
2019-05-11T03:53:07.950Z,8.90
2019-05-11T03:55:37.968Z,8.90
2019-05-11T03:58:07.462Z,8.80
2019-05-11T04:00:37.021Z,8.90
2019-05-11T04:03:06.619Z,8.90
2019-05-11T04:05:36.199Z,8.80
2019-05-11T04:08:05.838Z,8.80
2019-05-11T04:10:35.467Z,8.80
2019-05-11T04:13:05.011Z,8.80
2019-05-11T04:15:34.531Z,8.80
2019-05-11T04:18:04.054Z,8.70
2019-05-11T04:20:33.553Z,8.70
2019-05-11T04:23:03.075Z,8.70
2019-05-11T04:25:32.977Z,8.70
2019-05-11T04:28:02.545Z,8.70
2019-05-11T04:30:32.384Z,8.80
2019-05-11T04:33:01.920Z,8.80
2019-05-11T04:35:31.491Z,8.80
2019-05-11T04:38:03.449Z,8.80
2019-05-11T04:40:33.050Z,8.90
2019-05-11T04:43:02.573Z,8.90
2019-05-11T04:45:32.337Z,8.90
2019-05-11T04:48:01.965Z,9.00
2019-05-11T04:50:31.572Z,9.00
2019-05-11T04:53:01.076Z,9.00
2019-05-11T04:55:30.929Z,9.00
2019-05-11T04:58:00.512Z,9.10
2019-05-11T05:00:30.164Z,9.10
2019-05-11T05:02:59.681Z,9.10
2019-05-11T05:05:29.338Z,9.20
2019-05-11T05:08:09.116Z,9.20
2019-05-11T05:10:30.453Z,9.30
2019-05-11T05:13:09.977Z,9.30
2019-05-11T05:15:31.195Z,9.30
2019-05-11T05:18:01.546Z,9.30
2019-05-11T05:20:31.126Z,9.30
2019-05-11T05:23:00.708Z,9.30
2019-05-11T05:25:30.266Z,9.30
2019-05-11T05:27:59.758Z,9.20
2019-05-11T05:30:29.282Z,9.30
2019-05-11T05:32:58.856Z,9.30
2019-05-11T05:35:28.443Z,9.40
2019-05-11T05:37:58.244Z,9.40
2019-05-11T05:40:27.837Z,9.50
2019-05-11T05:42:57.371Z,9.60
2019-05-11T05:45:26.995Z,9.70
2019-05-11T05:47:56.594Z,9.90
2019-05-11T05:50:26.111Z,10.00
2019-05-11T05:52:55.981Z,10.20
2019-05-11T05:55:25.553Z,10.30
2019-05-11T05:57:55.231Z,10.40
2019-05-11T06:00:24.885Z,10.40
2019-05-11T06:02:54.481Z,10.50
2019-05-11T06:05:23.997Z,10.60
2019-05-11T06:07:53.864Z,10.80
2019-05-11T06:10:23.400Z,10.90
2019-05-11T06:12:52.950Z,11.00
2019-05-11T06:15:22.620Z,11.10
2019-05-11T06:17:52.146Z,11.30
2019-05-11T06:20:21.632Z,11.40
2019-05-11T06:22:51.197Z,11.50
2019-05-11T06:25:20.750Z,11.60
2019-05-11T06:27:50.308Z,11.70
2019-05-11T06:30:20.077Z,11.80
2019-05-11T06:32:49.702Z,11.80
2019-05-11T06:35:22.383Z,11.90
2019-05-11T06:37:50.775Z,11.90
2019-05-11T06:40:20.529Z,11.90
2019-05-11T06:42:50.111Z,11.90
2019-05-11T06:45:19.868Z,11.90
2019-05-11T06:47:49.441Z,11.90
2019-05-11T06:50:19.176Z,11.80
2019-05-11T06:52:49.369Z,11.80
2019-05-11T06:55:19.072Z,11.80
2019-05-11T06:57:48.649Z,11.90
2019-05-11T07:00:18.763Z,12.10
2019-05-11T07:02:48.908Z,12.20
2019-05-11T07:05:18.567Z,12.10
2019-05-11T07:07:48.287Z,12.20
2019-05-11T07:10:18.109Z,12.20
2019-05-11T07:12:48.647Z,12.30
2019-05-11T07:15:18.307Z,12.40
2019-05-11T07:17:47.835Z,12.60
2019-05-11T07:20:17.412Z,12.80
2019-05-11T07:22:47.071Z,13.10
2019-05-11T07:25:16.658Z,13.40
2019-05-11T07:27:47.158Z,13.40
2019-05-11T07:30:16.987Z,13.40
2019-05-11T07:32:48.220Z,13.40
2019-05-11T07:35:18.819Z,13.60
2019-05-11T07:37:52.492Z,13.90
2019-05-11T07:40:23.149Z,14.20
2019-05-11T07:42:53.719Z,14.40
2019-05-11T07:45:23.525Z,14.60
2019-05-11T07:47:53.029Z,14.70
2019-05-11T07:50:22.583Z,14.80
2019-05-11T07:52:53.367Z,14.90
2019-05-11T07:55:23.039Z,14.90
2019-05-11T07:57:52.605Z,15.10
2019-05-11T08:00:22.458Z,15.20
2019-05-11T08:02:51.980Z,15.20
2019-05-11T08:05:21.537Z,15.10
2019-05-11T08:07:51.032Z,14.90
2019-05-11T08:10:20.546Z,14.80
2019-05-11T08:12:50.619Z,14.60
2019-05-11T08:15:20.296Z,14.40
2019-05-11T08:17:49.825Z,14.20
2019-05-11T08:20:20.934Z,14.10
2019-05-11T08:22:51.010Z,13.90
2019-05-11T08:25:20.595Z,13.80
2019-05-11T08:27:50.119Z,13.60
2019-05-11T08:30:19.641Z,13.70
2019-05-11T08:32:49.604Z,13.80
2019-05-11T08:35:19.251Z,13.80
2019-05-11T08:37:49.798Z,13.90
2019-05-11T08:40:20.068Z,14.00
2019-05-11T08:42:49.955Z,14.00
2019-05-11T08:45:24.100Z,14.00
2019-05-11T08:47:50.776Z,14.30
2019-05-11T08:50:20.352Z,14.60
2019-05-11T08:52:50.417Z,14.90
2019-05-11T08:55:20.246Z,15.10
2019-05-11T08:57:50.726Z,15.10
2019-05-11T09:00:21.493Z,15.10
2019-05-11T09:02:51.241Z,15.10
2019-05-11T09:05:20.923Z,14.90
2019-05-11T09:07:50.566Z,14.70
2019-05-11T09:10:20.153Z,14.70
2019-05-11T09:12:49.760Z,14.80
2019-05-11T09:15:32.631Z,15.10
2019-05-11T09:17:50.949Z,15.40
2019-05-11T09:20:20.624Z,15.70
2019-05-11T09:22:50.125Z,15.70
2019-05-11T09:25:19.641Z,15.70
2019-05-11T09:27:49.466Z,15.50
2019-05-11T09:30:20.095Z,15.40
2019-05-11T09:32:49.695Z,15.00
2019-05-11T09:35:19.238Z,14.80
2019-05-11T09:37:48.822Z,14.80
2019-05-11T09:40:18.498Z,14.90
2019-05-11T09:42:48.199Z,15.00
2019-05-11T09:45:18.824Z,15.40
2019-05-11T09:47:48.680Z,15.50
2019-05-11T09:50:18.612Z,15.60
2019-05-11T09:52:48.958Z,15.80
2019-05-11T09:55:19.196Z,16.10
2019-05-11T09:57:49.231Z,16.50
2019-05-11T10:00:19.186Z,16.70
2019-05-11T10:02:49.032Z,16.80
2019-05-11T10:05:19.006Z,16.90
2019-05-11T10:07:48.693Z,17.10
2019-05-11T10:10:18.879Z,17.30
2019-05-11T10:12:49.660Z,17.50
2019-05-11T10:15:20.540Z,17.90
2019-05-11T10:17:50.125Z,18.10
2019-05-11T10:20:19.725Z,18.10
2019-05-11T10:22:49.250Z,18.30
2019-05-11T10:25:19.104Z,18.40
2019-05-11T10:27:49.083Z,18.80
2019-05-11T10:30:20.380Z,19.10
2019-05-11T10:32:57.614Z,19.40
2019-05-11T10:35:28.196Z,19.40
2019-05-11T10:37:58.438Z,19.00
2019-05-11T10:40:28.385Z,18.60
2019-05-11T10:42:58.956Z,18.60
2019-05-11T10:45:28.727Z,18.30
2019-05-11T10:48:00.972Z,18.40
2019-05-11T10:50:29.620Z,18.40
2019-05-11T10:52:59.256Z,18.00
2019-05-11T10:55:29.081Z,17.70
2019-05-11T10:57:58.685Z,17.50
2019-05-11T11:00:28.454Z,17.80
2019-05-11T11:02:58.399Z,18.30
2019-05-11T11:05:28.154Z,18.60
2019-05-11T11:07:58.849Z,18.80
2019-05-11T11:10:28.887Z,19.00
2019-05-11T11:12:59.306Z,19.40
2019-05-11T11:15:29.035Z,19.80
2019-05-11T11:17:58.926Z,19.60
2019-05-11T11:20:28.418Z,19.50
2019-05-11T11:22:58.511Z,19.20
2019-05-11T11:25:28.558Z,19.00
2019-05-11T11:27:58.181Z,18.90
2019-05-11T11:30:28.581Z,18.80
2019-05-11T11:32:58.870Z,18.60
2019-05-11T11:35:28.541Z,18.60
2019-05-11T11:37:58.585Z,18.80
2019-05-11T11:40:28.383Z,18.90
2019-05-11T11:42:58.252Z,19.00
2019-05-11T11:45:28.757Z,18.40
2019-05-11T11:47:59.011Z,18.00
2019-05-11T11:50:28.559Z,18.10
2019-05-11T11:52:58.231Z,18.60
2019-05-11T11:55:28.948Z,18.80
2019-05-11T11:57:59.001Z,19.30
2019-05-11T12:00:29.094Z,19.50
2019-05-11T12:02:58.900Z,19.30
2019-05-11T12:05:28.503Z,19.00
2019-05-11T12:07:58.220Z,18.60
2019-05-11T12:10:28.679Z,18.30
2019-05-11T12:12:58.467Z,18.20
2019-05-11T12:15:28.438Z,18.00
2019-05-11T12:17:58.826Z,17.90
2019-05-11T12:20:28.806Z,18.00
2019-05-11T12:22:59.338Z,18.50
2019-05-11T12:25:28.845Z,19.10
2019-05-11T12:27:58.505Z,19.10
2019-05-11T12:30:28.646Z,19.00
2019-05-11T12:32:58.394Z,18.70
2019-05-11T12:35:28.569Z,18.60
2019-05-11T12:37:58.876Z,18.30
2019-05-11T12:40:28.629Z,18.20
2019-05-11T12:42:59.055Z,18.10
2019-05-11T12:45:29.628Z,18.50
2019-05-11T12:47:59.589Z,18.90
2019-05-11T12:50:29.211Z,19.40
2019-05-11T12:52:58.979Z,19.70
2019-05-11T12:55:28.809Z,19.70
2019-05-11T12:57:58.393Z,19.40
2019-05-11T13:00:31.077Z,18.90
2019-05-11T13:02:59.221Z,18.40
2019-05-11T13:05:28.785Z,18.00
2019-05-11T13:07:58.816Z,17.90
2019-05-11T13:10:28.570Z,17.80
2019-05-11T13:12:58.305Z,18.10
2019-05-11T13:15:28.295Z,18.40
2019-05-11T13:17:58.268Z,18.80
2019-05-11T13:20:28.571Z,19.00
2019-05-11T13:22:58.901Z,18.90
2019-05-11T13:25:28.520Z,18.40
2019-05-11T13:27:58.295Z,17.90
2019-05-11T13:30:28.028Z,17.80
2019-05-11T13:32:58.189Z,17.60
2019-05-11T13:35:28.519Z,17.70
2019-05-11T13:37:58.625Z,18.10
2019-05-11T13:40:29.290Z,18.50
2019-05-11T13:42:58.855Z,18.80
2019-05-11T13:45:28.716Z,18.80
2019-05-11T13:47:59.162Z,18.80
2019-05-11T13:50:30.102Z,18.60
2019-05-11T13:52:59.693Z,18.60
2019-05-11T13:55:29.195Z,18.70
2019-05-11T13:57:58.721Z,18.90
2019-05-11T14:00:28.833Z,19.10
2019-05-11T14:03:00.238Z,19.30
2019-05-11T14:05:29.928Z,19.40
2019-05-11T14:07:59.557Z,19.60
2019-05-11T14:10:29.327Z,19.60
2019-05-11T14:12:58.925Z,19.30
2019-05-11T14:15:28.482Z,18.90
2019-05-11T14:18:07.846Z,18.60
2019-05-11T14:20:29.277Z,18.70
2019-05-11T14:22:58.810Z,18.80
2019-05-11T14:25:28.343Z,18.90
2019-05-11T14:27:59.537Z,19.10
2019-05-11T14:30:29.432Z,19.00
2019-05-11T14:32:59.108Z,18.80
2019-05-11T14:35:28.625Z,18.70
2019-05-11T14:37:58.788Z,18.70
2019-05-11T14:40:28.767Z,18.50
2019-05-11T14:42:58.343Z,18.30
2019-05-11T14:45:28.795Z,18.30
2019-05-11T14:47:58.589Z,18.40
2019-05-11T14:50:28.361Z,18.70
2019-05-11T14:52:58.211Z,18.50
2019-05-11T14:55:28.833Z,18.10
2019-05-11T14:57:58.628Z,18.20
2019-05-11T15:00:28.935Z,18.40
2019-05-11T15:02:58.797Z,18.80
2019-05-11T15:05:28.482Z,19.00
2019-05-11T15:07:58.544Z,19.10
2019-05-11T15:10:28.133Z,19.60
2019-05-11T15:12:59.167Z,19.60
2019-05-11T15:15:28.803Z,19.20
2019-05-11T15:17:58.570Z,18.90
2019-05-11T15:20:28.718Z,18.90
2019-05-11T15:22:58.457Z,18.90
2019-05-11T15:25:28.902Z,19.00
2019-05-11T15:27:58.942Z,18.80
2019-05-11T15:30:28.868Z,18.80
2019-05-11T15:32:58.649Z,18.90
2019-05-11T15:35:28.722Z,18.90
2019-05-11T15:37:58.396Z,18.80
2019-05-11T15:40:28.128Z,18.80
2019-05-11T15:42:58.544Z,18.70
2019-05-11T15:45:28.396Z,18.80
2019-05-11T15:47:58.940Z,18.80
2019-05-11T15:50:29.183Z,18.70
2019-05-11T15:52:59.229Z,18.50
2019-05-11T15:55:28.767Z,18.30
2019-05-11T15:57:59.647Z,18.30
2019-05-11T16:00:29.185Z,18.20
2019-05-11T16:02:58.723Z,18.20
2019-05-11T16:05:28.667Z,18.10
2019-05-11T16:08:01.363Z,18.00
2019-05-11T16:10:29.567Z,18.00
2019-05-11T16:12:59.062Z,18.10
2019-05-11T16:15:28.601Z,18.00
2019-05-11T16:17:58.131Z,17.90
2019-05-11T16:20:28.491Z,17.90
2019-05-11T16:22:58.240Z,17.90
2019-05-11T16:25:28.158Z,17.90
2019-05-11T16:27:57.745Z,17.80
2019-05-11T16:30:28.728Z,17.80
2019-05-11T16:32:58.690Z,17.80
2019-05-11T16:35:28.227Z,17.80
2019-05-11T16:37:59.185Z,17.80
2019-05-11T16:40:29.721Z,17.60
2019-05-11T16:42:59.948Z,17.50
2019-05-11T16:45:29.484Z,17.60
2019-05-11T16:47:59.250Z,17.50
2019-05-11T16:50:29.709Z,17.40
2019-05-11T16:52:59.236Z,17.20
2019-05-11T16:55:28.943Z,17.20
2019-05-11T16:57:58.899Z,17.20
2019-05-11T17:00:28.464Z,17.20
2019-05-11T17:02:58.025Z,17.10
2019-05-11T17:05:33.275Z,17.00
2019-05-11T17:07:58.919Z,17.10
2019-05-11T17:10:28.576Z,17.10
2019-05-11T17:12:58.246Z,17.10
2019-05-11T17:15:28.917Z,17.00
2019-05-11T17:17:59.558Z,16.90
2019-05-11T17:20:29.083Z,16.90
2019-05-11T17:22:58.836Z,16.80
2019-05-11T17:25:29.398Z,16.80
2019-05-11T17:27:58.892Z,16.60
2019-05-11T17:30:28.434Z,16.60
2019-05-11T17:32:59.352Z,16.50
2019-05-11T17:35:29.078Z,16.40
2019-05-11T17:37:58.634Z,16.30
2019-05-11T17:40:28.581Z,16.20
2019-05-11T17:42:58.600Z,16.10
2019-05-11T17:45:28.294Z,16.10
2019-05-11T17:47:58.300Z,15.90
2019-05-11T17:50:28.324Z,15.70
2019-05-11T17:52:58.176Z,15.60
2019-05-11T17:55:28.600Z,15.50
2019-05-11T17:57:58.448Z,15.50
2019-05-11T18:00:28.472Z,15.50
2019-05-11T18:02:58.432Z,15.50
2019-05-11T18:05:28.111Z,15.40
2019-05-11T18:07:58.067Z,15.40
2019-05-11T18:10:28.309Z,15.40
2019-05-11T18:12:58.089Z,15.30
2019-05-11T18:15:27.594Z,15.20
2019-05-11T18:17:58.785Z,15.10
2019-05-11T18:20:28.767Z,15.10
2019-05-11T18:22:59.165Z,14.90
2019-05-11T18:25:28.977Z,14.80
2019-05-11T18:27:58.569Z,14.80
2019-05-11T18:30:29.327Z,14.60
2019-05-11T18:32:59.600Z,14.40
2019-05-11T18:35:29.398Z,14.20
2019-05-11T18:37:59.386Z,14.20
2019-05-11T18:40:28.957Z,14.10
2019-05-11T18:42:58.641Z,13.90
2019-05-11T18:45:28.903Z,13.70
2019-05-11T18:47:58.636Z,13.60
2019-05-11T18:50:30.908Z,13.40
2019-05-11T18:52:59.669Z,13.30
2019-05-11T18:55:29.316Z,13.30
2019-05-11T18:57:58.821Z,13.10
2019-05-11T19:00:28.645Z,13.00
2019-05-11T19:02:58.255Z,12.90
2019-05-11T19:05:29.169Z,12.80
2019-05-11T19:07:58.945Z,12.60
2019-05-11T19:10:28.478Z,12.60
2019-05-11T19:12:58.916Z,12.40
2019-05-11T19:15:28.824Z,12.30
2019-05-11T19:17:58.540Z,12.30
2019-05-11T19:20:28.463Z,12.20
2019-05-11T19:22:58.979Z,12.10
2019-05-11T19:25:28.768Z,12.00
2019-05-11T19:27:59.038Z,12.00
2019-05-11T19:30:28.597Z,11.80
2019-05-11T19:32:58.971Z,11.70
2019-05-11T19:35:28.871Z,11.60
2019-05-11T19:37:58.439Z,11.40
2019-05-11T19:40:27.938Z,11.40
2019-05-11T19:42:58.988Z,11.30
2019-05-11T19:45:29.586Z,11.30
2019-05-11T19:47:59.335Z,11.10
2019-05-11T19:50:29.367Z,11.10
2019-05-11T19:52:58.927Z,11.10
2019-05-11T19:55:28.732Z,11.00
2019-05-11T19:57:58.443Z,10.90
2019-05-11T20:00:28.040Z,10.80
2019-05-11T20:02:58.541Z,10.70
2019-05-11T20:05:28.763Z,10.60
2019-05-11T20:07:58.910Z,10.50
2019-05-11T20:10:28.591Z,10.40
2019-05-11T20:12:58.810Z,10.30
2019-05-11T20:15:28.667Z,10.30
2019-05-11T20:17:58.631Z,10.20
2019-05-11T20:20:28.668Z,10.20
2019-05-11T20:22:58.615Z,10.10
2019-05-11T20:25:29.057Z,10.00
2019-05-11T20:27:58.843Z,10.00
2019-05-11T20:30:28.385Z,9.90
2019-05-11T20:32:57.957Z,9.90
2019-05-11T20:35:27.978Z,9.80
2019-05-11T20:37:58.096Z,9.70
2019-05-11T20:40:28.565Z,9.60
2019-05-11T20:42:58.860Z,9.60
2019-05-11T20:45:28.685Z,9.60
2019-05-11T20:47:58.447Z,9.60
2019-05-11T20:50:27.962Z,9.50
2019-05-11T20:52:58.194Z,9.40
2019-05-11T20:55:28.466Z,9.40
2019-05-11T20:57:58.460Z,9.30
2019-05-11T21:00:28.291Z,9.20
2019-05-11T21:02:58.846Z,9.20
2019-05-11T21:05:28.877Z,9.20
2019-05-11T21:07:58.450Z,9.10
2019-05-11T21:10:29.035Z,9.10
2019-05-11T21:12:58.585Z,9.00
2019-05-11T21:15:28.385Z,8.90
2019-05-11T21:17:58.742Z,8.90
2019-05-11T21:20:28.782Z,8.80
2019-05-11T21:22:58.598Z,8.80
2019-05-11T21:25:28.814Z,8.70
2019-05-11T21:27:58.542Z,8.70
2019-05-11T21:30:28.611Z,8.60
2019-05-11T21:32:58.418Z,8.60
2019-05-11T21:35:28.257Z,8.60
2019-05-11T21:37:58.301Z,8.50
2019-05-11T21:40:29.050Z,8.40
2019-05-11T21:42:59.001Z,8.40
2019-05-11T21:45:29.074Z,8.40
2019-05-11T21:47:58.574Z,8.30
2019-05-11T21:50:28.149Z,8.20
2019-05-11T21:52:58.944Z,8.20
2019-05-11T21:55:29.353Z,8.20
2019-05-11T21:58:00.071Z,8.20
2019-05-11T22:00:30.573Z,8.10
2019-05-11T22:03:00.059Z,8.10
2019-05-11T22:05:29.688Z,8.00
2019-05-11T22:07:59.315Z,8.00
2019-05-11T22:10:29.082Z,7.90
2019-05-11T22:12:58.790Z,7.80
2019-05-11T22:15:30.991Z,7.70
2019-05-11T22:18:01.514Z,7.70
2019-05-11T22:20:31.211Z,7.70
2019-05-11T22:23:01.139Z,7.70
2019-05-11T22:25:30.811Z,7.70
2019-05-11T22:28:00.348Z,7.60
2019-05-11T22:30:29.965Z,7.60
2019-05-11T22:32:59.503Z,7.50
2019-05-11T22:35:29.082Z,7.50
2019-05-11T22:37:58.635Z,7.40
2019-05-11T22:40:28.358Z,7.30
2019-05-11T22:43:01.119Z,7.30
2019-05-11T22:45:29.257Z,7.30
2019-05-11T22:47:58.841Z,7.30
2019-05-11T22:50:29.298Z,7.20
2019-05-11T22:52:59.473Z,7.20
2019-05-11T22:55:28.985Z,7.10
2019-05-11T22:57:58.586Z,7.10
2019-05-11T23:00:39.980Z,7.10
2019-05-11T23:03:11.017Z,7.00
2019-05-11T23:05:42.037Z,7.00
2019-05-11T23:08:12.536Z,7.00
2019-05-11T23:10:42.137Z,6.90
2019-05-11T23:13:11.816Z,6.90
2019-05-11T23:15:41.637Z,6.90
2019-05-11T23:18:11.155Z,6.80
2019-05-11T23:20:40.785Z,6.70
2019-05-11T23:23:10.371Z,6.70
2019-05-11T23:25:39.926Z,6.70
2019-05-11T23:28:09.423Z,6.60
2019-05-11T23:30:39.173Z,6.60
2019-05-11T23:33:08.765Z,6.50
2019-05-11T23:35:38.554Z,6.60
2019-05-11T23:38:08.248Z,6.50
2019-05-11T23:40:39.039Z,6.50
2019-05-11T23:43:08.994Z,6.50
2019-05-11T23:45:38.712Z,6.60
2019-05-11T23:48:08.421Z,6.60
2019-05-11T23:50:38.569Z,6.60
2019-05-11T23:53:10.260Z,6.60
2019-05-11T23:55:39.904Z,6.60
2019-05-11T23:58:09.459Z,6.70
